Orchid Ace — 7JDE — position and weather

sailwx.info

Track history (hours):
 
Tides and Currents Weather Stations Pressure Air Temp Water Temp Dewpoint Dewpoint Depression Visibility Wind Speed Wind Dir Waves Ship Positions

Orchid Ace

Last reported at 2015-Feb-21 17:28 UTC. Time now 2015-Feb-28 20:56 UTC.
Position N 31°03' W 118°44'.

Length 200 m; draft 7.6 m.

Type: Cargo ship. MMSI: 432651000.

Date/timePositionNaut miles runAvg speedWind from/ knotsBaromVisibWave heightAir tempDewpointWater temp
2015-Feb-21 17:28N 31°03' W 118°44'1718.5
2015-Feb-21 16:33N 31°10' W 118°26'2020.1
2015-Feb-21 15:33N 31°26' W 118°13'2120.1
2015-Feb-21 14:30N 31°44' W 117°58'2119.8
2015-Feb-21 13:27N 32°01' W 117°44'1617.6
2015-Feb-21 12:33N 32°13' W 117°34'1413.7
2015-Feb-21 11:33N 32°25' W 117°24'1111.3
2015-Feb-21 10:33N 32°34' W 117°17'1010.2
2015-Feb-21 09:34N 32°43' W 117°12'5 5.1
2015-Feb-21 08:31N 32°39' W 117°07'0 0.0
2015-Feb-21 07:31N 32°39' W 117°07'0 0.0
2015-Feb-21 06:31N 32°39' W 117°07'0 0.0
2015-Feb-21 05:31N 32°39' W 117°07'0 0.0
2015-Feb-21 04:31N 32°39' W 117°07'0 0.0
2015-Feb-21 03:28N 32°39' W 117°07'0 0.0
2015-Feb-21 02:22N 32°39' W 117°07'0 0.0
2015-Feb-21 01:31N 32°39' W 117°07'0 0.0
2015-Feb-21 00:28N 32°39' W 117°07'0 0.0
2015-Feb-20 23:28N 32°39' W 117°07'0 0.0
2015-Feb-20 22:31N 32°39' W 117°07'0 0.0
2015-Feb-20 20:25N 32°39' W 117°07'0 0.0
2015-Feb-20 18:31N 32°39' W 117°07'0 0.0
2015-Feb-20 17:31N 32°39' W 117°07'0 0.0
2015-Feb-20 16:31N 32°39' W 117°07'0 0.0
2015-Feb-20 15:31N 32°39' W 117°07'0 0.0
2015-Feb-20 14:22N 32°39' W 117°07'0 0.0
2015-Feb-20 13:25N 32°39' W 117°07'0 0.0
2015-Feb-20 12:25N 32°39' W 117°07'0 0.0
2015-Feb-20 11:25N 32°39' W 117°07'0 0.0
2015-Feb-20 10:13N 32°39' W 117°07'0 0.0
2015-Feb-20 09:31N 32°39' W 117°07'0 0.0
2015-Feb-20 08:31N 32°39' W 117°07'0 0.0
2015-Feb-20 07:31N 32°39' W 117°07'0 0.0
2015-Feb-20 06:25N 32°39' W 117°07'0 0.0
2015-Feb-20 05:28N 32°39' W 117°07'0 0.0
2015-Feb-20 04:34N 32°39' W 117°07'0 0.0
2015-Feb-20 03:31N 32°39' W 117°07'6 6.2
2015-Feb-20 02:34N 32°43' W 117°13'9 9.2
2015-Feb-20 01:34N 32°35' W 117°18'1010.3
2015-Feb-20 00:33N 32°29' W 117°27'1111.3
2015-Feb-19 23:33N 32°26' W 117°40'1515.0
2015-Feb-19 22:33N 32°23' W 117°58'1515.0
2015-Feb-19 21:33N 32°20' W 118°15'1514.9
2015-Feb-19 20:33N 32°19' W 118°33'1111.3
2015-Feb-19 19:33N 32°10' W 118°41'1111.2
2015-Feb-19 18:33N 32°02' W 118°50'1110.6
2015-Feb-19 17:34N 32°08' W 118°60'1111.1
2015-Feb-19 16:34N 32°17' W 119°08'1414.2
2015-Feb-19 15:33N 32°15' W 119°24'1110.6
2015-Feb-19 14:33N 32°05' W 119°25'8 6.7
2015-Feb-19 13:21N 31°57' W 119°28'1 1.6
2015-Feb-19 12:26N 31°58' W 119°29'1 1.6
2015-Feb-19 11:33N 31°58' W 119°31'2 1.6
2015-Feb-19 10:33N 31°59' W 119°33'2 1.7
2015-Feb-19 09:33N 31°59' W 119°35'2 1.8
2015-Feb-19 08:33N 31°59' W 119°37'2 1.8
2015-Feb-19 07:33N 32°00' W 119°39'2 1.7
2015-Feb-19 06:33N 32°01' W 119°40'2 1.7
2015-Feb-19 05:27N 32°01' W 119°43'2 1.9
2015-Feb-19 04:33N 32°02' W 119°45'2 2.1
2015-Feb-19 03:32N 32°02' W 119°47'2 2.1
2015-Feb-19 02:33N 32°03' W 119°49'2 2.1
2015-Feb-19 01:29N 32°04' W 119°51'3 2.0
2015-Feb-19 00:14N 32°06' W 119°54'2 2.0
2015-Feb-18 23:28N 32°07' W 119°55'2 1.9
2015-Feb-18 22:33N 32°07' W 119°57'10 9.5
2015-Feb-18 21:30N 32°17' W 119°54'1112.1
2015-Feb-18 20:33N 32°14' W 120°07'1515.0
2015-Feb-18 19:33N 32°14' W 120°24'1916.4
2015-Feb-18 18:23N 32°13' W 120°47'1315.2
2015-Feb-18 17:33N 32°12' W 121°02'3614.8
2015-Feb-18 15:09N 32°10' W 121°44'4815.5
2015-Feb-18 12:04N 32°50' W 122°14'1116.1
2015-Feb-18 11:23N 32°60' W 122°21'1715.8
2015-Feb-18 10:19N 33°14' W 122°32'4315.5
2015-Feb-18 07:33N 33°50' W 122°58'10715.0
2015-Feb-18 00:27N 35°26' W 123°57'1415.8
2015-Feb-17 23:33N 35°39' W 124°00'1515.4
2015-Feb-17 22:33N 35°55' W 124°04'3818.5
2015-Feb-17 20:30N 36°32' W 124°15'2119.5
2015-Feb-17 19:25N 36°52' W 124°20'3719.8
2015-Feb-17 17:33N 37°28' W 124°30'2019.5
2015-Feb-17 16:31N 37°48' W 124°36'2119.6
2015-Feb-17 15:26N 38°09' W 124°41'1719.6
2015-Feb-17 14:33N 38°26' W 124°46'56919.0
2015-Feb-16 08:33N 47°55' W 125°18'2019.3
2015-Feb-16 07:32N 48°14' W 125°11'1818.5
2015-Feb-16 06:33N 48°30' W 124°60'1918.7
2015-Feb-16 05:33N 48°27' W 124°32'2019.8
2015-Feb-16 04:33N 48°20' W 124°04'2120.5
2015-Feb-16 03:33N 48°16' W 123°34'1312.6
2015-Feb-16 02:34N 48°23' W 123°18'1817.9
2015-Feb-16 01:33N 48°41' W 123°15'1414.0
2015-Feb-16 00:33N 48°54' W 123°09'1413.6
2015-Feb-15 23:34N 49°06' W 123°18'1010.3
2015-Feb-15 22:34N 49°09' W 123°03'5 5.1
2015-Feb-15 21:30N 49°11' W 122°55'0 0.0
2015-Feb-15 20:33N 49°11' W 122°55'0 0.0
2015-Feb-15 19:30N 49°11' W 122°55'0 0.0
2015-Feb-15 18:33N 49°11' W 122°55'0 0.0
2015-Feb-15 17:30N 49°11' W 122°55'0 0.0
2015-Feb-15 16:30N 49°11' W 122°55'0 0.0
2015-Feb-15 15:30N 49°11' W 122°55'0 0.0
2015-Feb-15 14:30N 49°11' W 122°55'0 0.0
2015-Feb-15 13:24N 49°11' W 122°55'0 0.0
2015-Feb-15 12:30N 49°11' W 122°55'0 0.0
2015-Feb-15 11:24N 49°11' W 122°55'0 0.0
2015-Feb-15 10:30N 49°11' W 122°55'0 0.0
2015-Feb-15 09:30N 49°11' W 122°55'0 0.0
2015-Feb-15 08:18N 49°11' W 122°55'0 0.0
2015-Feb-15 06:21N 49°11' W 122°55'0 0.0
2015-Feb-15 05:33N 49°11' W 122°55'0 0.0
2015-Feb-15 04:33N 49°11' W 122°55'0 0.0
2015-Feb-15 03:09N 49°11' W 122°55'0 0.0
2015-Feb-15 02:21N 49°11' W 122°55'0 0.0
2015-Feb-15 01:30N 49°11' W 122°55'0 0.0
2015-Feb-15 00:33N 49°11' W 122°55'0 0.0
2015-Feb-14 23:30N 49°11' W 122°55'0 0.0
2015-Feb-14 22:33N 49°11' W 122°55'0 0.0
2015-Feb-14 21:33N 49°11' W 122°55'0 0.0
2015-Feb-14 20:30N 49°11' W 122°55'0 0.0
2015-Feb-14 19:33N 49°11' W 122°55'0 0.0
2015-Feb-14 18:33N 49°11' W 122°55'0 0.0
2015-Feb-14 17:24N 49°11' W 122°55'2 1.8
2015-Feb-14 16:34N 49°10' W 122°56'1010.2
2015-Feb-14 15:34N 49°07' W 123°11'7 7.0
2015-Feb-14 14:34N 49°04' W 123°21'1514.8
2015-Feb-14 13:33N 48°54' W 123°04'1414.3
2015-Feb-14 12:33N 48°41' W 123°15'1717.3
2015-Feb-14 11:33N 48°24' W 123°13'1211.8
2015-Feb-14 10:33N 48°16' W 123°26'10 9.7
2015-Feb-14 09:33N 48°10' W 123°15'1717.2
2015-Feb-14 08:33N 48°12' W 122°49'1716.8
2015-Feb-14 07:34N 47°58' W 122°35'1717.2
2015-Feb-14 06:34N 47°42' W 122°27'1818.5
2015-Feb-14 05:34N 47°24' W 122°21'8 7.9
2015-Feb-14 04:33N 47°16' W 122°24'1 0.7
2015-Feb-14 03:25N 47°15' W 122°23'0 0.0
2015-Feb-14 02:28N 47°15' W 122°23'0 0.0
2015-Feb-14 01:28N 47°15' W 122°23'0 0.0
2015-Feb-13 23:19N 47°15' W 122°23'0 0.0
2015-Feb-13 22:25N 47°15' W 122°23'0 0.0
2015-Feb-13 16:28N 47°15' W 122°23'0 0.0
2015-Feb-13 15:25N 47°15' W 122°23'0 0.0
2015-Feb-13 10:33N 47°16' W 122°23'5 4.6
2015-Feb-13 09:34N 47°19' W 122°28'1413.6
2015-Feb-13 08:34N 47°33' W 122°27'1717.0
2015-Feb-13 07:33N 47°49' W 122°28'1918.5
2015-Feb-13 06:32N 48°06' W 122°40'1919.3
2015-Feb-13 05:33N 48°12' W 123°07'1413.5
2015-Feb-13 04:32N 48°12' W 123°28'1010.5
2015-Feb-13 03:33N 48°13' W 123°43'1111.0
2015-Feb-13 02:33N 48°14' W 123°60'1212.2
2015-Feb-13 01:33N 48°19' W 124°16'1312.6
2015-Feb-13 00:34N 48°25' W 124°33'1212.1
2015-Feb-12 23:33N 48°28' W 124°51'1312.7
2015-Feb-12 22:33N 48°28' W 125°10'1312.6
2015-Feb-12 21:33N 48°30' W 125°29'1212.4
2015-Feb-12 20:33N 48°35' W 125°46'1212.4
2015-Feb-12 19:33N 48°40' W 126°03'1312.2
2015-Feb-12 18:32N 48°44' W 126°21'1212.1
2015-Feb-12 17:33N 48°49' W 126°37'  
Track history (hours):
 
Tides and Currents Weather Stations Pressure Air Temp Water Temp Dewpoint Dewpoint Depression Visibility Wind Speed Wind Dir Waves Ship Positions

Orchid Ace

Last reported at 2015-Feb-21 17:28 UTC. Time now 2015-Feb-28 20:56 UTC.
Position N 31°03' W 118°44'.

Length 200 m; draft 7.6 m.

Type: Cargo ship. MMSI: 432651000.

Date/timePositionNaut miles runAvg speedWind from/ knotsBaromVisibWave heightAir tempDewpointWater temp
2015-Feb-21 17:28N 31°03' W 118°44'1718.5
2015-Feb-21 16:33N 31°10' W 118°26'2020.1
2015-Feb-21 15:33N 31°26' W 118°13'2120.1
2015-Feb-21 14:30N 31°44' W 117°58'2119.8
2015-Feb-21 13:27N 32°01' W 117°44'1617.6
2015-Feb-21 12:33N 32°13' W 117°34'1413.7
2015-Feb-21 11:33N 32°25' W 117°24'1111.3
2015-Feb-21 10:33N 32°34' W 117°17'1010.2
2015-Feb-21 09:34N 32°43' W 117°12'5 5.1
2015-Feb-21 08:31N 32°39' W 117°07'0 0.0
2015-Feb-21 07:31N 32°39' W 117°07'0 0.0
2015-Feb-21 06:31N 32°39' W 117°07'0 0.0
2015-Feb-21 05:31N 32°39' W 117°07'0 0.0
2015-Feb-21 04:31N 32°39' W 117°07'0 0.0
2015-Feb-21 03:28N 32°39' W 117°07'0 0.0
2015-Feb-21 02:22N 32°39' W 117°07'0 0.0
2015-Feb-21 01:31N 32°39' W 117°07'0 0.0
2015-Feb-21 00:28N 32°39' W 117°07'0 0.0
2015-Feb-20 23:28N 32°39' W 117°07'0 0.0
2015-Feb-20 22:31N 32°39' W 117°07'0 0.0
2015-Feb-20 20:25N 32°39' W 117°07'0 0.0
2015-Feb-20 18:31N 32°39' W 117°07'0 0.0
2015-Feb-20 17:31N 32°39' W 117°07'0 0.0
2015-Feb-20 16:31N 32°39' W 117°07'0 0.0
2015-Feb-20 15:31N 32°39' W 117°07'0 0.0
2015-Feb-20 14:22N 32°39' W 117°07'0 0.0
2015-Feb-20 13:25N 32°39' W 117°07'0 0.0
2015-Feb-20 12:25N 32°39' W 117°07'0 0.0
2015-Feb-20 11:25N 32°39' W 117°07'0 0.0
2015-Feb-20 10:13N 32°39' W 117°07'0 0.0
2015-Feb-20 09:31N 32°39' W 117°07'0 0.0
2015-Feb-20 08:31N 32°39' W 117°07'0 0.0
2015-Feb-20 07:31N 32°39' W 117°07'0 0.0
2015-Feb-20 06:25N 32°39' W 117°07'0 0.0
2015-Feb-20 05:28N 32°39' W 117°07'0 0.0
2015-Feb-20 04:34N 32°39' W 117°07'0 0.0
2015-Feb-20 03:31N 32°39' W 117°07'6 6.2
2015-Feb-20 02:34N 32°43' W 117°13'9 9.2
2015-Feb-20 01:34N 32°35' W 117°18'1010.3
2015-Feb-20 00:33N 32°29' W 117°27'1111.3
2015-Feb-19 23:33N 32°26' W 117°40'1515.0
2015-Feb-19 22:33N 32°23' W 117°58'1515.0
2015-Feb-19 21:33N 32°20' W 118°15'1514.9
2015-Feb-19 20:33N 32°19' W 118°33'1111.3
2015-Feb-19 19:33N 32°10' W 118°41'1111.2
2015-Feb-19 18:33N 32°02' W 118°50'1110.6
2015-Feb-19 17:34N 32°08' W 118°60'1111.1
2015-Feb-19 16:34N 32°17' W 119°08'1414.2
2015-Feb-19 15:33N 32°15' W 119°24'1110.6
2015-Feb-19 14:33N 32°05' W 119°25'8 6.7
2015-Feb-19 13:21N 31°57' W 119°28'1 1.6
2015-Feb-19 12:26N 31°58' W 119°29'1 1.6
2015-Feb-19 11:33N 31°58' W 119°31'2 1.6
2015-Feb-19 10:33N 31°59' W 119°33'2 1.7
2015-Feb-19 09:33N 31°59' W 119°35'2 1.8
2015-Feb-19 08:33N 31°59' W 119°37'2 1.8
2015-Feb-19 07:33N 32°00' W 119°39'2 1.7
2015-Feb-19 06:33N 32°01' W 119°40'2 1.7
2015-Feb-19 05:27N 32°01' W 119°43'2 1.9
2015-Feb-19 04:33N 32°02' W 119°45'2 2.1
2015-Feb-19 03:32N 32°02' W 119°47'2 2.1
2015-Feb-19 02:33N 32°03' W 119°49'2 2.1
2015-Feb-19 01:29N 32°04' W 119°51'3 2.0
2015-Feb-19 00:14N 32°06' W 119°54'2 2.0
2015-Feb-18 23:28N 32°07' W 119°55'2 1.9
2015-Feb-18 22:33N 32°07' W 119°57'10 9.5
2015-Feb-18 21:30N 32°17' W 119°54'1112.1
2015-Feb-18 20:33N 32°14' W 120°07'1515.0
2015-Feb-18 19:33N 32°14' W 120°24'1916.4
2015-Feb-18 18:23N 32°13' W 120°47'1315.2
2015-Feb-18 17:33N 32°12' W 121°02'3614.8
2015-Feb-18 15:09N 32°10' W 121°44'4815.5
2015-Feb-18 12:04N 32°50' W 122°14'1116.1
2015-Feb-18 11:23N 32°60' W 122°21'1715.8
2015-Feb-18 10:19N 33°14' W 122°32'4315.5
2015-Feb-18 07:33N 33°50' W 122°58'10715.0
2015-Feb-18 00:27N 35°26' W 123°57'1415.8
2015-Feb-17 23:33N 35°39' W 124°00'1515.4
2015-Feb-17 22:33N 35°55' W 124°04'3818.5
2015-Feb-17 20:30N 36°32' W 124°15'2119.5
2015-Feb-17 19:25N 36°52' W 124°20'3719.8
2015-Feb-17 17:33N 37°28' W 124°30'2019.5
2015-Feb-17 16:31N 37°48' W 124°36'2119.6
2015-Feb-17 15:26N 38°09' W 124°41'1719.6
2015-Feb-17 14:33N 38°26' W 124°46'56919.0
2015-Feb-16 08:33N 47°55' W 125°18'2019.3
2015-Feb-16 07:32N 48°14' W 125°11'1818.5
2015-Feb-16 06:33N 48°30' W 124°60'1918.7
2015-Feb-16 05:33N 48°27' W 124°32'2019.8
2015-Feb-16 04:33N 48°20' W 124°04'2120.5
2015-Feb-16 03:33N 48°16' W 123°34'1312.6
2015-Feb-16 02:34N 48°23' W 123°18'1817.9
2015-Feb-16 01:33N 48°41' W 123°15'1414.0
2015-Feb-16 00:33N 48°54' W 123°09'1413.6
2015-Feb-15 23:34N 49°06' W 123°18'1010.3
2015-Feb-15 22:34N 49°09' W 123°03'5 5.1
2015-Feb-15 21:30N 49°11' W 122°55'0 0.0
2015-Feb-15 20:33N 49°11' W 122°55'0 0.0
2015-Feb-15 19:30N 49°11' W 122°55'0 0.0
2015-Feb-15 18:33N 49°11' W 122°55'0 0.0
2015-Feb-15 17:30N 49°11' W 122°55'0 0.0
2015-Feb-15 16:30N 49°11' W 122°55'0 0.0
2015-Feb-15 15:30N 49°11' W 122°55'0 0.0
2015-Feb-15 14:30N 49°11' W 122°55'0 0.0
2015-Feb-15 13:24N 49°11' W 122°55'0 0.0
2015-Feb-15 12:30N 49°11' W 122°55'0 0.0
2015-Feb-15 11:24N 49°11' W 122°55'0 0.0
2015-Feb-15 10:30N 49°11' W 122°55'0 0.0
2015-Feb-15 09:30N 49°11' W 122°55'0 0.0
2015-Feb-15 08:18N 49°11' W 122°55'0 0.0
2015-Feb-15 06:21N 49°11' W 122°55'0 0.0
2015-Feb-15 05:33N 49°11' W 122°55'0 0.0
2015-Feb-15 04:33N 49°11' W 122°55'0 0.0
2015-Feb-15 03:09N 49°11' W 122°55'0 0.0
2015-Feb-15 02:21N 49°11' W 122°55'0 0.0
2015-Feb-15 01:30N 49°11' W 122°55'0 0.0
2015-Feb-15 00:33N 49°11' W 122°55'0 0.0
2015-Feb-14 23:30N 49°11' W 122°55'0 0.0
2015-Feb-14 22:33N 49°11' W 122°55'0 0.0
2015-Feb-14 21:33N 49°11' W 122°55'0 0.0
2015-Feb-14 20:30N 49°11' W 122°55'0 0.0
2015-Feb-14 19:33N 49°11' W 122°55'0 0.0
2015-Feb-14 18:33N 49°11' W 122°55'0 0.0
2015-Feb-14 17:24N 49°11' W 122°55'2 1.8
2015-Feb-14 16:34N 49°10' W 122°56'1010.2
2015-Feb-14 15:34N 49°07' W 123°11'7 7.0
2015-Feb-14 14:34N 49°04' W 123°21'1514.8
2015-Feb-14 13:33N 48°54' W 123°04'1414.3
2015-Feb-14 12:33N 48°41' W 123°15'1717.3
2015-Feb-14 11:33N 48°24' W 123°13'1211.8
2015-Feb-14 10:33N 48°16' W 123°26'10 9.7
2015-Feb-14 09:33N 48°10' W 123°15'1717.2
2015-Feb-14 08:33N 48°12' W 122°49'1716.8
2015-Feb-14 07:34N 47°58' W 122°35'1717.2
2015-Feb-14 06:34N 47°42' W 122°27'1818.5
2015-Feb-14 05:34N 47°24' W 122°21'8 7.9
2015-Feb-14 04:33N 47°16' W 122°24'1 0.7
2015-Feb-14 03:25N 47°15' W 122°23'0 0.0
2015-Feb-14 02:28N 47°15' W 122°23'0 0.0
2015-Feb-14 01:28N 47°15' W 122°23'0 0.0
2015-Feb-13 23:19N 47°15' W 122°23'0 0.0
2015-Feb-13 22:25N 47°15' W 122°23'0 0.0
2015-Feb-13 16:28N 47°15' W 122°23'0 0.0
2015-Feb-13 15:25N 47°15' W 122°23'0 0.0
2015-Feb-13 10:33N 47°16' W 122°23'5 4.6
2015-Feb-13 09:34N 47°19' W 122°28'1413.6
2015-Feb-13 08:34N 47°33' W 122°27'1717.0
2015-Feb-13 07:33N 47°49' W 122°28'1918.5
2015-Feb-13 06:32N 48°06' W 122°40'1919.3
2015-Feb-13 05:33N 48°12' W 123°07'1413.5
2015-Feb-13 04:32N 48°12' W 123°28'1010.5
2015-Feb-13 03:33N 48°13' W 123°43'1111.0
2015-Feb-13 02:33N 48°14' W 123°60'1212.2
2015-Feb-13 01:33N 48°19' W 124°16'1312.6
2015-Feb-13 00:34N 48°25' W 124°33'1212.1
2015-Feb-12 23:33N 48°28' W 124°51'1312.7
2015-Feb-12 22:33N 48°28' W 125°10'1312.6
2015-Feb-12 21:33N 48°30' W 125°29'1212.4
2015-Feb-12 20:33N 48°35' W 125°46'1212.4
2015-Feb-12 19:33N 48°40' W 126°03'1312.2
2015-Feb-12 18:32N 48°44' W 126°21'1212.1
2015-Feb-12 17:33N 48°49' W 126°37'  

Dump ship's entire track history